createdAt,value
2023-02-22T00:02:11.507Z,4.74
2023-02-22T00:04:40.511Z,4.69
2023-02-22T00:07:08.602Z,4.61
2023-02-22T00:09:36.842Z,4.74
2023-02-22T00:12:04.733Z,4.78
2023-02-22T00:14:32.963Z,4.78
2023-02-22T00:17:00.920Z,4.91
2023-02-22T00:19:31.353Z,5.13
2023-02-22T00:22:00.354Z,4.98
2023-02-22T00:24:29.692Z,4.91
2023-02-22T00:26:58.510Z,4.96
2023-02-22T00:29:27.027Z,4.78
2023-02-22T00:31:56.317Z,5.19
2023-02-22T00:34:26.846Z,5.54
2023-02-22T00:36:54.653Z,5.60
2023-02-22T00:39:23.188Z,5.64
2023-02-22T00:41:51.156Z,5.24
2023-02-22T00:44:20.623Z,5.39
2023-02-22T00:46:49.995Z,5.04
2023-02-22T00:49:18.183Z,4.99
2023-02-22T00:51:46.240Z,5.17
2023-02-22T00:54:14.825Z,5.11
2023-02-22T00:56:42.606Z,4.87
2023-02-22T00:59:12.076Z,4.88
2023-02-22T01:01:40.234Z,4.85
2023-02-22T01:04:08.389Z,4.88
2023-02-22T01:06:36.730Z,4.83
2023-02-22T01:09:08.045Z,4.54
2023-02-22T01:11:36.015Z,5.01
2023-02-22T01:14:04.177Z,4.94
2023-02-22T01:16:32.367Z,5.00
2023-02-22T01:19:01.667Z,5.13
2023-02-22T01:21:29.982Z,4.81
2023-02-22T01:23:58.637Z,4.85
2023-02-22T01:26:27.063Z,5.02
2023-02-22T01:28:55.274Z,5.05
2023-02-22T01:31:24.329Z,4.92
2023-02-22T01:33:54.048Z,4.96
2023-02-22T01:36:22.763Z,5.07
2023-02-22T01:38:50.975Z,5.04
2023-02-22T01:41:19.388Z,5.25
2023-02-22T01:43:47.621Z,5.11
2023-02-22T01:46:27.542Z,5.47
2023-02-22T01:49:00.934Z,5.54
2023-02-22T01:51:40.679Z,5.69
2023-02-22T01:54:16.943Z,5.66
2023-02-22T01:56:54.794Z,5.74
2023-02-22T01:59:24.453Z,5.76
2023-02-22T02:01:52.816Z,5.82
2023-02-22T02:04:25.890Z,5.93
2023-02-22T02:07:02.443Z,6.01
2023-02-22T02:09:45.201Z,5.61
2023-02-22T02:12:16.184Z,5.69
2023-02-22T02:14:44.832Z,5.38
2023-02-22T02:17:15.426Z,5.32
2023-02-22T02:20:08.982Z,5.48
2023-02-22T02:23:00.951Z,5.65
2023-02-22T02:25:47.456Z,5.78
2023-02-22T02:28:42.631Z,5.54
2023-02-22T02:31:47.730Z,5.63
2023-02-22T02:34:35.178Z,5.47
2023-02-22T02:37:12.706Z,5.55
2023-02-22T02:39:52.013Z,5.59
2023-02-22T02:42:25.808Z,5.57
2023-02-22T02:44:56.011Z,5.43
2023-02-22T02:47:31.517Z,5.36
2023-02-22T02:50:28.771Z,5.50
2023-02-22T02:53:02.235Z,5.60
2023-02-22T02:55:33.125Z,5.45
2023-02-22T02:58:01.654Z,5.42
2023-02-22T03:00:39.586Z,5.63
2023-02-22T03:03:22.942Z,5.27
2023-02-22T03:06:20.469Z,5.36
2023-02-22T03:08:59.652Z,5.53
2023-02-22T03:11:42.768Z,5.61
2023-02-22T03:14:23.559Z,5.82
2023-02-22T03:17:05.583Z,5.64
2023-02-22T03:20:05.310Z,5.28
2023-02-22T03:22:44.350Z,5.21
2023-02-22T03:25:23.255Z,5.14
2023-02-22T03:28:03.422Z,5.15
2023-02-22T03:30:57.790Z,5.39
2023-02-22T03:33:36.638Z,5.44
2023-02-22T03:36:15.590Z,5.42
2023-02-22T03:38:45.874Z,5.33
2023-02-22T03:41:20.690Z,5.39
2023-02-22T03:43:51.799Z,5.48
2023-02-22T03:46:20.009Z,5.51
2023-02-22T03:49:03.332Z,5.46
2023-02-22T03:51:35.799Z,5.56
2023-02-22T03:54:06.110Z,5.66
2023-02-22T03:56:47.497Z,5.84
2023-02-22T03:59:16.481Z,5.79
2023-02-22T04:01:45.322Z,6.11
2023-02-22T04:04:13.401Z,6.11
2023-02-22T04:06:41.890Z,6.02
2023-02-22T04:09:10.013Z,6.19
2023-02-22T04:11:38.220Z,5.98
2023-02-22T04:14:06.552Z,6.26
2023-02-22T04:16:35.227Z,6.23
2023-02-22T04:19:06.895Z,5.90
2023-02-22T04:21:36.604Z,5.98
2023-02-22T04:24:05.552Z,6.06
2023-02-22T04:26:33.877Z,6.19
2023-02-22T04:29:04.614Z,6.36
2023-02-22T04:31:38.989Z,6.21
2023-02-22T04:34:07.474Z,6.24
2023-02-22T04:36:39.437Z,6.04
2023-02-22T04:39:07.550Z,6.22
2023-02-22T04:41:37.070Z,6.15
2023-02-22T04:44:05.219Z,6.22
2023-02-22T04:46:34.700Z,5.86
2023-02-22T04:49:03.267Z,6.23
2023-02-22T04:51:36.270Z,6.44
2023-02-22T04:54:08.244Z,6.49
2023-02-22T04:56:39.153Z,6.62
2023-02-22T04:59:09.683Z,6.60
2023-02-22T05:01:39.698Z,6.82
2023-02-22T05:04:08.641Z,6.77
2023-02-22T05:06:37.273Z,6.68
2023-02-22T05:09:05.345Z,6.82
2023-02-22T05:11:33.576Z,6.66
2023-02-22T05:14:01.332Z,6.98
2023-02-22T05:16:29.664Z,7.09
2023-02-22T05:18:57.462Z,7.17
2023-02-22T05:21:25.666Z,6.93
2023-02-22T05:23:53.845Z,7.23
2023-02-22T05:26:22.260Z,7.29
2023-02-22T05:28:50.190Z,7.44
2023-02-22T05:31:19.911Z,7.55
2023-02-22T05:33:48.721Z,7.61
2023-02-22T05:36:17.183Z,7.43
2023-02-22T05:38:45.136Z,7.43
2023-02-22T05:41:14.552Z,7.45
2023-02-22T05:43:42.587Z,7.64
2023-02-22T05:46:10.854Z,7.70
2023-02-22T05:48:39.098Z,7.84
2023-02-22T05:51:09.940Z,7.98
2023-02-22T05:53:37.960Z,7.92
2023-02-22T05:56:06.830Z,8.20
2023-02-22T05:58:34.654Z,7.88
2023-02-22T06:01:03.506Z,8.04
2023-02-22T06:03:31.441Z,8.17
2023-02-22T06:06:00.376Z,8.30
2023-02-22T06:08:28.411Z,8.15
2023-02-22T06:10:56.598Z,8.19
2023-02-22T06:13:24.547Z,8.08
2023-02-22T06:15:53.040Z,8.21
2023-02-22T06:18:20.827Z,8.36
2023-02-22T06:20:49.548Z,8.37
2023-02-22T06:23:17.386Z,8.19
2023-02-22T06:25:45.586Z,8.27
2023-02-22T06:28:13.452Z,8.50
2023-02-22T06:30:43.343Z,8.63
2023-02-22T06:33:12.381Z,8.92
2023-02-22T06:35:40.745Z,9.04
2023-02-22T06:38:08.638Z,9.11
2023-02-22T06:40:37.408Z,9.08
2023-02-22T06:43:05.712Z,8.96
2023-02-22T06:45:35.549Z,9.33
2023-02-22T06:48:03.468Z,9.32
2023-02-22T06:50:33.223Z,9.04
2023-02-22T06:53:02.165Z,8.83
2023-02-22T06:55:33.324Z,8.83
2023-02-22T06:58:02.550Z,8.89
2023-02-22T07:00:32.411Z,8.87
2023-02-22T07:03:00.971Z,9.35
2023-02-22T07:05:29.281Z,9.18
2023-02-22T07:08:04.883Z,9.43
2023-02-22T07:10:36.316Z,9.42
2023-02-22T07:13:06.589Z,9.56
2023-02-22T07:15:35.997Z,9.15
2023-02-22T07:18:04.662Z,9.16
2023-02-22T07:20:33.148Z,9.36
2023-02-22T07:23:01.885Z,9.53
2023-02-22T07:25:29.820Z,9.59
2023-02-22T07:27:58.759Z,9.82
2023-02-22T07:30:31.582Z,9.86
2023-02-22T07:33:02.573Z,9.87
2023-02-22T07:35:39.016Z,9.73
2023-02-22T07:38:09.126Z,9.70
2023-02-22T07:40:38.905Z,9.51
2023-02-22T07:43:20.875Z,9.35
2023-02-22T07:45:51.139Z,9.59
2023-02-22T07:48:21.639Z,9.50
2023-02-22T07:50:50.484Z,9.40
2023-02-22T07:53:21.408Z,9.36
2023-02-22T07:55:52.370Z,9.36
2023-02-22T07:58:24.485Z,9.43
2023-02-22T08:00:52.990Z,9.49
2023-02-22T08:03:24.171Z,9.54
2023-02-22T08:05:55.746Z,9.65
2023-02-22T08:08:24.553Z,9.81
2023-02-22T08:10:53.223Z,9.92
2023-02-22T08:13:22.507Z,10.06
2023-02-22T08:15:53.831Z,9.69
2023-02-22T08:18:25.026Z,10.01
2023-02-22T08:20:54.376Z,10.26
2023-02-22T08:23:25.770Z,10.49
2023-02-22T08:25:54.013Z,10.40
2023-02-22T08:28:24.637Z,10.30
2023-02-22T08:30:52.942Z,10.48
2023-02-22T08:33:21.686Z,10.30
2023-02-22T08:35:52.356Z,10.34
2023-02-22T08:38:31.113Z,10.59
2023-02-22T08:40:59.187Z,10.83
2023-02-22T08:43:28.781Z,10.85
2023-02-22T08:45:57.778Z,10.71
2023-02-22T08:48:26.444Z,10.81
2023-02-22T08:50:55.170Z,10.96
2023-02-22T08:53:23.581Z,10.51
2023-02-22T08:55:51.767Z,10.34
2023-02-22T08:58:20.206Z,10.23
2023-02-22T09:00:49.532Z,10.27
2023-02-22T09:03:18.000Z,10.19
2023-02-22T09:05:46.160Z,10.02
2023-02-22T09:08:16.929Z,10.17
2023-02-22T09:10:45.666Z,10.48
2023-02-22T09:13:14.011Z,10.70
2023-02-22T09:15:41.927Z,10.46
2023-02-22T09:18:14.850Z,10.47
2023-02-22T09:20:42.981Z,10.47
2023-02-22T09:23:11.891Z,10.56
2023-02-22T09:25:41.201Z,10.32
2023-02-22T09:28:09.894Z,10.50
2023-02-22T09:30:38.476Z,10.33
2023-02-22T09:33:11.787Z,10.60
2023-02-22T09:35:42.912Z,10.63
2023-02-22T09:38:11.950Z,11.11
2023-02-22T09:41:14.817Z,11.39
2023-02-22T09:43:49.654Z,11.60
2023-02-22T09:46:27.780Z,11.65
2023-02-22T09:49:25.329Z,11.35
2023-02-22T09:52:19.021Z,11.00
2023-02-22T09:55:25.873Z,11.18
2023-02-22T09:57:56.684Z,11.05
2023-02-22T10:00:33.711Z,11.15
2023-02-22T10:03:21.595Z,11.08
2023-02-22T10:05:57.459Z,11.35
2023-02-22T10:08:31.329Z,11.50
2023-02-22T10:11:53.048Z,11.41
2023-02-22T10:14:38.721Z,11.32
2023-02-22T10:17:36.115Z,11.35
2023-02-22T10:20:15.211Z,11.34
2023-02-22T10:23:13.853Z,11.43
2023-02-22T10:25:46.269Z,11.27
2023-02-22T10:28:24.655Z,11.42
2023-02-22T10:31:02.627Z,11.58
2023-02-22T10:33:42.692Z,11.36
2023-02-22T10:36:22.881Z,11.14
2023-02-22T10:39:01.401Z,11.38
2023-02-22T10:41:33.659Z,11.55
2023-02-22T10:44:03.396Z,11.70
2023-02-22T10:46:33.570Z,11.97
2023-02-22T10:49:09.084Z,12.05
2023-02-22T10:51:37.335Z,11.95
2023-02-22T10:54:14.763Z,11.74
2023-02-22T10:56:55.876Z,11.67
2023-02-22T10:59:42.331Z,11.95
2023-02-22T11:02:32.107Z,11.98
2023-02-22T11:05:02.770Z,11.77
2023-02-22T11:07:33.906Z,12.01
2023-02-22T11:10:11.135Z,12.09
2023-02-22T11:12:48.915Z,12.06
2023-02-22T11:15:17.436Z,11.75
2023-02-22T11:17:47.770Z,11.94
2023-02-22T11:20:26.127Z,11.73
2023-02-22T11:22:56.417Z,11.96
2023-02-22T11:25:37.445Z,11.29
2023-02-22T11:28:33.169Z,10.89
2023-02-22T11:31:24.052Z,11.06
2023-02-22T11:36:42.338Z,10.94
2023-02-22T11:39:30.498Z,10.83
2023-02-22T11:41:59.420Z,11.03
2023-02-22T11:44:31.349Z,10.74
2023-02-22T11:47:07.359Z,10.86
2023-02-22T11:49:41.497Z,10.98
2023-02-22T11:52:26.155Z,11.13
2023-02-22T11:55:32.691Z,11.19
2023-02-22T11:58:30.460Z,11.05
2023-02-22T12:01:07.380Z,11.11
2023-02-22T12:03:58.756Z,10.97
2023-02-22T12:06:35.850Z,11.10
2023-02-22T12:09:33.404Z,10.61
2023-02-22T12:12:04.132Z,10.80
2023-02-22T12:15:14.206Z,10.57
2023-02-22T12:18:05.495Z,10.47
2023-02-22T12:20:47.958Z,10.49
2023-02-22T12:23:23.365Z,10.59
2023-02-22T12:26:15.164Z,10.23
2023-02-22T12:29:08.946Z,10.45
2023-02-22T12:31:45.836Z,9.72
2023-02-22T12:34:20.225Z,10.01
2023-02-22T12:37:12.015Z,9.45
2023-02-22T12:39:53.745Z,9.38
2023-02-22T12:42:59.144Z,9.50
2023-02-22T12:45:58.128Z,9.32
2023-02-22T12:48:52.750Z,9.13
2023-02-22T12:52:09.583Z,9.35
2023-02-22T12:55:25.853Z,9.02
2023-02-22T12:58:26.205Z,9.20
2023-02-22T13:01:07.050Z,9.10
2023-02-22T13:03:41.409Z,9.28
2023-02-22T13:06:48.930Z,9.60
2023-02-22T13:09:38.061Z,9.72
2023-02-22T13:12:33.605Z,9.89
2023-02-22T13:15:42.852Z,9.68
2023-02-22T13:18:21.560Z,9.42
2023-02-22T13:21:01.552Z,9.49
2023-02-22T13:23:32.856Z,9.75
2023-02-22T13:26:11.558Z,9.74
2023-02-22T13:29:11.081Z,9.73
2023-02-22T13:32:07.455Z,9.67
2023-02-22T13:35:14.129Z,9.43
2023-02-22T13:38:01.948Z,9.21
2023-02-22T13:40:48.528Z,8.94
2023-02-22T13:43:41.981Z,9.10
2023-02-22T13:46:59.624Z,9.36
2023-02-22T13:50:00.209Z,9.03
2023-02-22T13:52:33.376Z,9.21
2023-02-22T13:55:11.461Z,9.04
2023-02-22T13:57:48.910Z,9.01
2023-02-22T14:00:17.576Z,9.23
2023-02-22T14:03:15.991Z,9.46
2023-02-22T14:05:47.422Z,9.59
2023-02-22T14:08:25.607Z,9.63
2023-02-22T14:11:02.543Z,9.27
2023-02-22T14:13:32.624Z,9.47
2023-02-22T14:16:00.737Z,9.46
2023-02-22T14:18:40.066Z,9.44
2023-02-22T14:21:10.560Z,9.61
2023-02-22T14:23:43.104Z,9.82
2023-02-22T14:26:29.482Z,9.67
2023-02-22T14:29:09.977Z,9.76
2023-02-22T14:32:02.905Z,9.83
2023-02-22T14:34:55.746Z,9.89
2023-02-22T14:37:33.985Z,9.91
2023-02-22T14:40:15.931Z,9.89
2023-02-22T14:42:48.809Z,9.77
2023-02-22T14:45:30.016Z,9.55
2023-02-22T14:48:18.744Z,9.39
2023-02-22T14:51:20.344Z,9.27
2023-02-22T14:53:55.497Z,9.03
2023-02-22T14:56:23.855Z,8.99
2023-02-22T14:59:08.379Z,8.76
2023-02-22T15:01:53.208Z,8.50
2023-02-22T15:04:25.908Z,8.96
2023-02-22T15:06:57.018Z,8.89
2023-02-22T15:09:32.911Z,8.70
2023-02-22T15:12:05.714Z,8.66
2023-02-22T15:14:39.214Z,8.55
2023-02-22T15:17:25.307Z,8.43
2023-02-22T15:19:55.312Z,8.43
2023-02-22T15:22:27.741Z,8.55
2023-02-22T15:25:04.222Z,8.72
2023-02-22T15:27:37.540Z,8.76
2023-02-22T15:30:28.110Z,8.51
2023-02-22T15:33:04.408Z,8.42
2023-02-22T15:35:33.944Z,8.20
2023-02-22T15:38:11.535Z,8.17
2023-02-22T15:40:43.464Z,8.17
2023-02-22T15:43:24.631Z,8.16
2023-02-22T15:45:53.100Z,8.09
2023-02-22T15:48:21.675Z,8.30
2023-02-22T15:51:10.968Z,8.24
2023-02-22T15:53:47.883Z,8.13
2023-02-22T15:56:31.586Z,8.35
2023-02-22T15:59:04.085Z,8.60
2023-02-22T16:01:41.287Z,8.53
2023-02-22T16:04:20.286Z,8.45
2023-02-22T16:06:51.127Z,8.53
2023-02-22T16:09:26.392Z,8.63
2023-02-22T16:12:11.413Z,8.88
2023-02-22T16:14:45.212Z,8.79
2023-02-22T16:17:25.904Z,8.94
2023-02-22T16:19:55.138Z,8.51
2023-02-22T16:22:34.821Z,8.60
2023-02-22T16:25:16.842Z,8.59
2023-02-22T16:28:01.841Z,8.79
2023-02-22T16:30:34.073Z,8.80
2023-02-22T16:33:06.849Z,8.55
2023-02-22T16:35:37.856Z,8.57
2023-02-22T16:38:09.137Z,8.60
2023-02-22T16:40:44.814Z,8.75
2023-02-22T16:43:17.874Z,7.98
2023-02-22T16:45:47.182Z,7.85
2023-02-22T16:48:26.999Z,7.85
2023-02-22T16:50:59.687Z,8.08
2023-02-22T16:53:31.376Z,8.18
2023-02-22T16:56:05.804Z,8.18
2023-02-22T16:58:37.257Z,8.26
2023-02-22T17:01:06.759Z,8.43
2023-02-22T17:03:34.713Z,8.48
2023-02-22T17:06:04.505Z,8.46
2023-02-22T17:08:32.817Z,8.46
2023-02-22T17:11:01.433Z,8.20
2023-02-22T17:13:29.708Z,8.20
2023-02-22T17:15:59.405Z,8.23
2023-02-22T17:18:34.324Z,7.75
2023-02-22T17:21:03.761Z,7.57
2023-02-22T17:23:31.795Z,7.53
2023-02-22T17:26:04.271Z,7.43
2023-02-22T17:28:32.441Z,7.57
2023-02-22T17:31:02.222Z,7.77
2023-02-22T17:33:33.881Z,7.49
2023-02-22T17:36:04.162Z,7.79
2023-02-22T17:38:32.091Z,7.44
2023-02-22T17:41:01.705Z,7.31
2023-02-22T17:43:31.036Z,7.64
2023-02-22T17:45:59.584Z,7.70
2023-02-22T17:48:27.896Z,7.86
2023-02-22T17:50:56.370Z,7.74
2023-02-22T17:53:25.717Z,7.35
2023-02-22T17:55:53.913Z,7.40
2023-02-22T17:58:23.829Z,7.55
2023-02-22T18:00:59.543Z,7.58
2023-02-22T18:03:30.478Z,7.51
2023-02-22T18:06:02.110Z,7.82
2023-02-22T18:08:32.378Z,7.80
2023-02-22T18:11:05.502Z,7.92
2023-02-22T18:13:34.106Z,7.92
2023-02-22T18:16:05.293Z,7.88
2023-02-22T18:18:34.154Z,8.00
2023-02-22T18:21:02.775Z,8.09
2023-02-22T18:23:32.969Z,7.89
2023-02-22T18:26:11.873Z,7.94
2023-02-22T18:28:40.449Z,7.76
2023-02-22T18:31:15.310Z,7.67
2023-02-22T18:33:44.724Z,7.68
2023-02-22T18:36:14.790Z,7.70
2023-02-22T18:38:43.873Z,7.75
2023-02-22T18:41:14.767Z,7.61
2023-02-22T18:43:43.144Z,7.84
2023-02-22T18:46:17.489Z,7.87
2023-02-22T18:48:47.416Z,7.79
2023-02-22T18:51:17.868Z,7.77
2023-02-22T18:53:47.864Z,7.61
2023-02-22T18:56:22.671Z,7.69
2023-02-22T18:58:54.902Z,7.88
2023-02-22T19:01:24.402Z,7.94
2023-02-22T19:03:53.259Z,8.02
2023-02-22T19:06:22.829Z,7.72
2023-02-22T19:08:51.256Z,7.72
2023-02-22T19:11:22.899Z,7.92
2023-02-22T19:13:54.270Z,8.01
2023-02-22T19:16:26.833Z,7.80
2023-02-22T19:18:57.857Z,7.86
2023-02-22T19:21:28.409Z,8.06
2023-02-22T19:24:02.739Z,7.99
2023-02-22T19:26:32.310Z,8.01
2023-02-22T19:29:05.444Z,8.06
2023-02-22T19:31:34.577Z,8.08
2023-02-22T19:34:11.024Z,8.07
2023-02-22T19:36:46.368Z,7.92
2023-02-22T19:39:19.892Z,7.80
2023-02-22T19:41:48.220Z,7.88
2023-02-22T19:44:16.337Z,7.92
2023-02-22T19:46:46.730Z,7.95
2023-02-22T19:49:16.484Z,7.95
2023-02-22T19:51:45.232Z,7.73
2023-02-22T19:54:17.713Z,7.70
2023-02-22T19:56:51.238Z,7.84
2023-02-22T19:59:23.237Z,7.55
2023-02-22T20:01:55.670Z,7.67
2023-02-22T20:04:24.726Z,7.81
2023-02-22T20:06:57.853Z,7.60
2023-02-22T20:09:30.207Z,7.69
2023-02-22T20:11:58.595Z,7.61
2023-02-22T20:14:28.854Z,7.72
2023-02-22T20:16:58.463Z,7.86
2023-02-22T20:19:27.587Z,7.73
2023-02-22T20:21:56.526Z,7.81
2023-02-22T20:24:27.957Z,7.80
2023-02-22T20:26:57.623Z,7.84
2023-02-22T20:29:32.568Z,7.76
2023-02-22T20:32:02.559Z,7.67
2023-02-22T20:34:33.911Z,7.74
2023-02-22T20:37:03.277Z,7.67
2023-02-22T20:39:31.586Z,7.70
2023-02-22T20:42:05.025Z,7.65
2023-02-22T20:44:33.058Z,7.41
2023-02-22T20:47:01.523Z,7.44
2023-02-22T20:49:29.877Z,7.65
2023-02-22T20:51:58.703Z,7.80
2023-02-22T20:54:26.672Z,7.71
2023-02-22T20:56:55.521Z,7.65
2023-02-22T20:59:23.422Z,7.75
2023-02-22T21:02:00.771Z,7.84
2023-02-22T21:04:33.368Z,7.82
2023-02-22T21:07:02.643Z,8.00
2023-02-22T21:09:32.751Z,7.92
2023-02-22T21:12:01.217Z,8.10
2023-02-22T21:14:31.160Z,8.22
2023-02-22T21:16:59.491Z,8.17
2023-02-22T21:19:27.493Z,8.30
2023-02-22T21:21:58.201Z,8.43
2023-02-22T21:24:27.657Z,8.25
2023-02-22T21:26:59.327Z,8.08
2023-02-22T21:29:28.892Z,8.06
2023-02-22T21:31:57.393Z,8.15
2023-02-22T21:34:26.177Z,8.10
2023-02-22T21:36:54.847Z,8.04
2023-02-22T21:39:28.535Z,8.08
2023-02-22T21:42:00.903Z,8.13
2023-02-22T21:44:29.314Z,7.88
2023-02-22T21:46:57.821Z,8.02
2023-02-22T21:49:25.852Z,8.06
2023-02-22T21:51:54.032Z,8.13
2023-02-22T21:54:23.183Z,8.09
2023-02-22T21:56:51.790Z,8.11
2023-02-22T21:59:21.614Z,8.15
2023-02-22T22:01:56.339Z,8.15
2023-02-22T22:04:31.565Z,8.31
2023-02-22T22:07:01.790Z,8.42
2023-02-22T22:09:36.881Z,8.31
2023-02-22T22:12:05.649Z,8.57
2023-02-22T22:14:35.028Z,8.53
2023-02-22T22:17:05.944Z,8.43
2023-02-22T22:19:39.580Z,8.30
2023-02-22T22:22:08.178Z,8.30
2023-02-22T22:24:36.604Z,8.48
2023-02-22T22:27:06.771Z,8.39
2023-02-22T22:29:34.797Z,8.44
2023-02-22T22:32:03.634Z,8.28
2023-02-22T22:34:34.367Z,8.23
2023-02-22T22:37:03.316Z,8.39
2023-02-22T22:39:31.208Z,8.49
2023-02-22T22:41:59.366Z,8.57
2023-02-22T22:44:33.135Z,8.29
2023-02-22T22:47:01.909Z,8.35
2023-02-22T22:49:31.690Z,8.37
2023-02-22T22:52:00.351Z,8.32
2023-02-22T22:54:29.123Z,8.33
2023-02-22T22:56:57.418Z,8.11
2023-02-22T22:59:25.253Z,8.07
2023-02-22T23:01:56.983Z,8.00
2023-02-22T23:04:25.794Z,8.04
2023-02-22T23:06:55.486Z,8.25
2023-02-22T23:09:25.244Z,8.05
2023-02-22T23:11:56.257Z,8.14
2023-02-22T23:14:31.460Z,8.25
2023-02-22T23:17:03.862Z,8.25
2023-02-22T23:19:36.813Z,8.28
2023-02-22T23:22:07.335Z,7.68
2023-02-22T23:24:36.934Z,7.72
2023-02-22T23:27:11.182Z,7.95
2023-02-22T23:29:42.220Z,7.94
2023-02-22T23:32:14.354Z,8.02
2023-02-22T23:34:42.674Z,7.96
2023-02-22T23:37:11.845Z,7.95
2023-02-22T23:39:40.072Z,7.80
2023-02-22T23:42:10.781Z,7.88
2023-02-22T23:44:40.193Z,7.80
2023-02-22T23:47:09.919Z,7.99
2023-02-22T23:49:39.157Z,7.82
2023-02-22T23:52:08.987Z,7.99
2023-02-22T23:54:40.621Z,7.87
2023-02-22T23:57:09.199Z,7.82
2023-02-22T23:59:40.738Z,7.69
